Time;durP1;ratioP1;P1;durP2;ratioP2;P2;SDS_P1;SDS_P2;PMS_P1;PMS_P2;Temp;Humidity;BMP_temperature;BMP_pressure;BME280_temperature;BME280_humidity;BME280_pressure;Samples;Min_cycle;Max_cycle;Signal;HPM_P1;HPM_P2
2023/09/28 00:01:16;;;;;;;2.60;1.33;;;;;;;16.19;100.00;101127.13;4874429;29;20453;-68
2023/09/28 00:03:45;;;;;;;3.30;2.70;;;;;;;16.08;100.00;101126.84;4880292;29;20406;-67
2023/09/28 00:06:16;;;;;;;2.10;0.90;;;;;;;15.98;100.00;101126.56;4880575;29;20426;-68
2023/09/28 00:08:44;;;;;;;2.17;1.63;;;;;;;15.92;100.00;101127.53;4880964;29;20431;-68
2023/09/28 00:11:12;;;;;;;2.80;1.57;;;;;;;15.81;100.00;101125.56;4884158;29;20485;-68
2023/09/28 00:13:40;;;;;;;2.33;2.20;;;;;;;15.72;100.00;101121.50;4886959;29;20901;-69
2023/09/28 00:16:09;;;;;;;0.87;0.50;;;;;;;15.68;100.00;101133.94;4884937;29;20435;-68
2023/09/28 00:18:37;;;;;;;1.50;1.10;;;;;;;15.60;100.00;101135.06;4884103;29;20445;-68
2023/09/28 00:21:06;;;;;;;2.30;1.27;;;;;;;15.51;100.00;101128.28;4878323;29;20475;-67
2023/09/28 00:23:36;;;;;;;1.30;1.20;;;;;;;15.48;100.00;101131.44;4880778;29;20402;-69
2023/09/28 00:26:07;;;;;;;1.63;1.17;;;;;;;15.54;100.00;101135.97;4879392;29;20448;-69
2023/09/28 00:28:37;;;;;;;1.83;1.70;;;;;;;15.49;100.00;101127.63;4879015;29;20459;-69
2023/09/28 00:31:06;;;;;;;1.33;1.03;;;;;;;15.46;100.00;101129.97;4883977;29;20456;-68
2023/09/28 00:33:34;;;;;;;2.33;1.40;;;;;;;15.45;100.00;101131.03;4877349;29;20526;-68
2023/09/28 00:36:03;;;;;;;3.03;1.13;;;;;;;15.50;100.00;101133.91;4879357;29;20394;-70
2023/09/28 00:38:31;;;;;;;2.20;1.17;;;;;;;15.38;100.00;101124.84;4883543;29;20452;-68
2023/09/28 00:41:03;;;;;;;2.33;1.77;;;;;;;15.30;100.00;101114.25;4881516;29;20477;-69
2023/09/28 00:43:31;;;;;;;3.73;1.87;;;;;;;15.22;100.00;101115.38;4874867;29;20867;-68
2023/09/28 00:46:00;;;;;;;1.30;1.20;;;;;;;15.20;100.00;101112.88;4878472;29;20454;-68
2023/09/28 00:48:29;;;;;;;1.53;1.37;;;;;;;15.18;100.00;101115.00;4880175;29;20414;-68
2023/09/28 00:50:59;;;;;;;1.00;0.90;;;;;;;15.27;100.00;101117.41;4878958;29;20529;-68
2023/09/28 00:54:11;;;;;;;2.33;1.37;;;;;;;15.34;100.00;101108.13;4879996;29;20425;-69
2023/09/28 00:56:41;;;;;;;3.13;2.93;;;;;;;15.53;100.00;101106.22;4885355;29;20417;-69
2023/09/28 00:59:10;;;;;;;1.50;1.40;;;;;;;15.70;100.00;101111.88;4886807;29;20519;-69
2023/09/28 01:01:39;;;;;;;3.53;1.33;;;;;;;15.84;100.00;101105.16;4879323;29;20816;-69
2023/09/28 01:04:08;;;;;;;10.00;2.80;;;;;;;15.91;100.00;101105.91;4879060;29;20414;-69
2023/09/28 01:06:39;;;;;;;1.93;1.53;;;;;;;15.97;100.00;101103.09;4877966;29;20414;-69
2023/09/28 01:09:09;;;;;;;0.90;0.80;;;;;;;15.93;100.00;101093.69;4883179;29;20451;-69
2023/09/28 01:11:41;;;;;;;2.27;1.17;;;;;;;15.91;100.00;101098.56;4877384;29;20441;-68
2023/09/28 01:14:09;;;;;;;1.00;0.80;;;;;;;15.87;100.00;101097.38;4882314;29;20982;-69
2023/09/28 01:16:39;;;;;;;0.90;0.60;;;;;;;15.80;100.00;101090.31;4881912;29;20477;-69
2023/09/28 01:19:08;;;;;;;3.23;1.90;;;;;;;15.76;100.00;101095.41;4882326;29;20447;-68
2023/09/28 01:21:37;;;;;;;0.90;0.60;;;;;;;15.80;100.00;101093.88;4878006;29;20968;-69
2023/09/28 01:24:07;;;;;;;1.13;1.03;;;;;;;15.88;100.00;101096.28;4878986;29;20564;-69
2023/09/28 01:26:35;;;;;;;0.90;0.73;;;;;;;15.81;100.00;101095.56;4880502;29;20471;-69
2023/09/28 01:29:05;;;;;;;2.10;1.90;;;;;;;15.80;100.00;101096.63;4879636;29;20427;-69
2023/09/28 01:31:34;;;;;;;0.80;0.50;;;;;;;15.86;100.00;101100.31;4878028;29;20498;-69
2023/09/28 01:34:01;;;;;;;1.63;1.53;;;;;;;15.82;100.00;101089.03;4879192;29;20417;-67
2023/09/28 01:36:30;;;;;;;1.90;1.80;;;;;;;15.86;100.00;101095.69;4883503;29;20488;-68
2023/09/28 01:39:02;;;;;;;1.47;1.27;;;;;;;15.85;100.00;101087.72;4881397;29;20421;-68
2023/09/28 01:41:32;;;;;;;1.00;0.80;;;;;;;15.78;100.00;101093.28;4868755;29;20474;-69
2023/09/28 01:44:00;;;;;;;1.30;1.17;;;;;;;15.82;100.00;101091.78;4877711;29;20956;-69
2023/09/28 01:46:29;;;;;;;0.90;0.67;;;;;;;15.94;100.00;101087.16;4876773;29;20529;-69
2023/09/28 01:48:56;;;;;;;1.30;1.20;;;;;;;15.99;100.00;101086.47;4879318;29;20410;-69
2023/09/28 01:51:25;;;;;;;3.23;2.53;;;;;;;16.20;100.00;101091.41;4877271;29;20438;-68
2023/09/28 01:53:53;;;;;;;0.90;0.60;;;;;;;16.12;100.00;101083.53;4877516;29;20514;-68
2023/09/28 01:56:22;;;;;;;3.03;2.30;;;;;;;16.25;100.00;101082.50;4877095;29;20479;-69
2023/09/28 01:58:51;;;;;;;0.80;0.50;;;;;;;16.25;100.00;101082.50;4881575;29;20413;-68
2023/09/28 02:01:26;;;;;;;1.53;1.13;;;;;;;16.15;100.00;101080.34;4877717;29;20537;-69
2023/09/28 02:03:54;;;;;;;2.20;1.93;;;;;;;16.07;100.00;101077.97;4881817;29;20447;-69
2023/09/28 02:06:24;;;;;;;0.80;0.50;;;;;;;16.16;100.00;101081.19;4882060;29;20551;-68
2023/09/28 02:08:52;;;;;;;0.87;0.60;;;;;;;16.02;100.00;101081.38;4878851;29;20418;-69
2023/09/28 02:11:20;;;;;;;1.10;0.70;;;;;;;16.16;100.00;101070.25;4878917;29;20929;-69
2023/09/28 02:13:50;;;;;;;1.97;1.87;;;;;;;16.16;100.00;101067.53;4878012;29;20406;-68
2023/09/28 02:16:18;;;;;;;1.77;1.47;;;;;;;16.16;100.00;101070.25;4877406;29;20410;-69
2023/09/28 02:18:46;;;;;;;1.37;1.27;;;;;;;16.28;100.00;101068.38;4883486;29;20419;-70
2023/09/28 02:21:15;;;;;;;1.20;1.10;;;;;;;16.29;100.00;101072.75;4876938;29;20459;-69
2023/09/28 02:23:43;;;;;;;1.60;1.50;;;;;;;16.29;100.00;101064.56;4876517;29;20922;-68
2023/09/28 02:26:12;;;;;;;0.97;0.70;;;;;;;16.25;100.00;101063.38;4874421;29;20618;-69
2023/09/28 02:28:39;;;;;;;0.90;0.70;;;;;;;16.28;100.00;101054.72;4886217;29;20433;-69
2023/09/28 02:31:09;;;;;;;1.20;1.00;;;;;;;16.23;100.00;101055.41;4878485;29;20467;-68
2023/09/28 02:33:37;;;;;;;2.27;1.43;;;;;;;16.26;100.00;101056.88;4874898;29;20425;-69
2023/09/28 02:36:06;;;;;;;2.60;1.37;;;;;;;16.14;100.00;101053.28;4877822;29;20413;-68
2023/09/28 02:38:35;;;;;;;1.63;0.83;;;;;;;16.20;100.00;101047.72;4876205;29;20433;-68
2023/09/28 02:41:04;;;;;;;1.07;0.97;;;;;;;16.08;100.00;101053.13;4877644;29;20434;-69
2023/09/28 02:43:32;;;;;;;1.10;1.00;;;;;;;16.00;100.00;101050.75;4877868;29;20825;-68
2023/09/28 02:46:00;;;;;;;1.83;1.73;;;;;;;16.20;99.89;101052.34;4876684;29;20566;-69
2023/09/28 02:48:30;;;;;;;1.70;1.60;;;;;;;16.12;100.00;101055.41;4877732;29;20933;-68
2023/09/28 02:50:58;;;;;;;0.80;0.50;;;;;;;16.11;100.00;101045.56;4876087;29;20446;-69
2023/09/28 02:53:26;;;;;;;0.93;0.83;;;;;;;16.14;99.42;101051.38;4878729;29;20545;-69
2023/09/28 02:55:55;;;;;;;8.20;1.50;;;;;;;16.12;99.83;101049.97;4880893;29;20495;-69
2023/09/28 02:58:24;;;;;;;1.33;1.23;;;;;;;16.13;99.16;101052.44;4883137;29;20439;-69
2023/09/28 03:00:55;;;;;;;0.80;0.50;;;;;;;16.24;98.60;101053.53;4879766;29;20530;-68
2023/09/28 03:03:23;;;;;;;0.97;0.87;;;;;;;16.08;98.42;101050.41;4878691;29;20694;-69
2023/09/28 03:05:55;;;;;;;1.43;1.07;;;;;;;15.97;99.36;101053.13;4883339;29;20456;-67
2023/09/28 03:08:24;;;;;;;0.90;0.70;;;;;;;15.99;99.60;101046.34;4882466;29;20439;-68
2023/09/28 03:10:52;;;;;;;7.20;2.07;;;;;;;15.95;99.69;101049.78;4880338;29;20445;-69
2023/09/28 03:13:22;;;;;;;2.17;1.40;;;;;;;15.99;99.14;101040.91;4879034;29;20418;-69
2023/09/28 03:15:51;;;;;;;1.00;0.90;;;;;;;15.91;99.75;101054.06;4878990;29;20483;-69
2023/09/28 03:18:19;;;;;;;1.13;1.03;;;;;;;15.82;100.00;101047.28;4881982;29;20435;-67
2023/09/28 03:20:50;;;;;;;1.00;0.60;;;;;;;15.91;99.78;101054.91;4890117;29;20448;-68
2023/09/28 03:23:19;;;;;;;0.90;0.60;;;;;;;15.86;100.00;101046.56;4879346;29;20426;-68
2023/09/28 03:25:48;;;;;;;3.03;0.70;;;;;;;15.75;100.00;101039.19;4881651;29;21024;-68
2023/09/28 03:28:17;;;;;;;1.57;1.47;;;;;;;15.80;100.00;101036.59;4884061;29;20517;-68
2023/09/28 03:30:44;;;;;;;1.47;1.37;;;;;;;15.79;100.00;101040.38;4885988;29;20462;-67
2023/09/28 03:33:13;;;;;;;1.00;0.80;;;;;;;15.79;100.00;101040.38;4881074;29;20800;-69
2023/09/28 03:35:41;;;;;;;1.53;1.43;;;;;;;15.78;100.00;101035.16;4880213;29;20793;-68
2023/09/28 03:38:09;;;;;;;1.20;1.10;;;;;;;15.68;100.00;101046.63;4881275;29;20451;-69
2023/09/28 03:40:43;;;;;;;1.40;0.93;;;;;;;15.84;99.70;101048.69;4884412;29;20429;-67
2023/09/28 03:43:12;;;;;;;1.00;0.90;;;;;;;15.90;98.83;101045.03;4880465;29;20417;-68
2023/09/28 03:45:41;;;;;;;1.60;0.93;;;;;;;15.79;99.22;101048.56;4888445;29;20452;-68
2023/09/28 03:48:10;;;;;;;1.80;1.63;;;;;;;15.78;99.04;101044.16;4885904;29;20409;-68
2023/09/28 03:50:39;;;;;;;2.80;1.70;;;;;;;15.80;99.08;101052.13;4880818;29;20542;-68
2023/09/28 03:53:07;;;;;;;0.90;0.60;;;;;;;15.81;99.41;101059.25;4884605;29;20410;-68
2023/09/28 03:55:36;;;;;;;1.40;1.30;;;;;;;15.82;98.74;101056.28;4880747;29;20410;-69
2023/09/28 03:58:06;;;;;;;0.80;0.50;;;;;;;15.74;99.15;101053.88;4879980;29;20834;-69
2023/09/28 04:00:35;;;;;;;2.10;1.67;;;;;;;15.67;99.33;101055.03;4885801;29;20538;-69
2023/09/28 04:03:04;;;;;;;1.50;1.20;;;;;;;15.77;98.73;101061.63;4883154;29;20409;-68
2023/09/28 04:05:32;;;;;;;1.63;0.93;;;;;;;15.64;99.60;101061.78;4885335;29;20780;-69
2023/09/28 04:08:01;;;;;;;1.30;1.07;;;;;;;15.58;100.00;101065.47;4880273;29;20535;-68
2023/09/28 04:10:31;;;;;;;0.90;0.67;;;;;;;15.50;100.00;101068.44;4881341;29;20828;-69
2023/09/28 04:13:01;;;;;;;1.00;0.90;;;;;;;15.40;100.00;101068.16;4885546;29;20434;-69
2023/09/28 04:15:31;;;;;;;1.10;0.77;;;;;;;15.35;100.00;101076.19;4881198;29;20418;-69
2023/09/28 04:18:00;;;;;;;0.80;0.50;;;;;;;15.32;100.00;101079.41;4877623;29;20440;-69
2023/09/28 04:20:29;;;;;;;5.47;1.00;;;;;;;15.32;100.00;101072.06;4882553;29;20410;-69
2023/09/28 04:22:58;;;;;;;2.23;0.80;;;;;;;15.33;100.00;101075.63;4882765;29;20406;-68
2023/09/28 04:25:29;;;;;;;1.97;1.87;;;;;;;15.33;100.00;101078.34;4882524;29;20857;-69
2023/09/28 04:27:57;;;;;;;0.90;0.77;;;;;;;15.59;100.00;101078.00;4887947;29;20879;-69
2023/09/28 04:30:26;;;;;;;1.83;0.90;;;;;;;15.48;100.00;101074.16;4881944;29;20431;-69
2023/09/28 04:32:57;;;;;;;2.10;1.90;;;;;;;15.40;100.00;101071.72;4881940;29;20417;-69
2023/09/28 04:35:26;;;;;;;1.73;1.60;;;;;;;15.45;100.00;101071.03;4879432;29;20470;-69
2023/09/28 04:37:55;;;;;;;2.03;1.23;;;;;;;15.48;100.00;101070.59;4881879;29;20858;-69
2023/09/28 04:40:25;;;;;;;1.33;1.23;;;;;;;15.52;100.00;101069.09;4882012;29;20989;-68
2023/09/28 04:42:55;;;;;;;0.90;0.70;;;;;;;15.44;100.00;101069.41;4883596;29;20434;-69
2023/09/28 04:45:24;;;;;;;0.90;0.70;;;;;;;15.48;100.00;101065.13;4882890;29;20439;-69
2023/09/28 04:47:52;;;;;;;1.10;0.70;;;;;;;15.58;99.31;101073.63;4883028;29;20444;-70
2023/09/28 04:50:23;;;;;;;2.90;1.87;;;;;;;15.45;100.00;101076.50;4880557;29;20526;-68
2023/09/28 04:52:52;;;;;;;2.17;1.13;;;;;;;15.45;99.88;101077.31;4886958;29;20788;-69
2023/09/28 04:55:21;;;;;;;0.93;0.83;;;;;;;15.40;100.00;101079.91;4882868;29;20438;-70
2023/09/28 04:57:50;;;;;;;1.27;1.17;;;;;;;15.41;100.00;101080.75;4876072;29;20773;-69
2023/09/28 05:00:20;;;;;;;1.00;0.60;;;;;;;15.41;100.00;101081.56;4880289;29;20508;-68
2023/09/28 05:02:48;;;;;;;1.50;0.80;;;;;;;15.35;100.00;101092.56;4883574;29;20471;-70
2023/09/28 05:05:17;;;;;;;1.20;1.10;;;;;;;15.43;100.00;101095.00;4880480;29;20458;-69
2023/09/28 05:07:47;;;;;;;1.10;0.80;;;;;;;15.31;100.00;101091.34;4876102;29;20464;-69
2023/09/28 05:10:16;;;;;;;1.60;1.47;;;;;;;15.30;100.00;101092.44;4877517;29;20611;-67
2023/09/28 05:12:45;;;;;;;1.10;0.60;;;;;;;15.36;100.00;101094.22;4880392;29;20508;-69
2023/09/28 05:15:15;;;;;;;1.30;0.90;;;;;;;15.42;100.00;101094.16;4880514;29;20451;-69
2023/09/28 05:17:44;;;;;;;0.90;0.73;;;;;;;15.49;100.00;101094.09;4881154;29;20432;-69
2023/09/28 05:20:13;;;;;;;1.73;1.63;;;;;;;15.51;100.00;101094.69;4879961;29;20463;-70
2023/09/28 05:22:43;;;;;;;2.20;2.10;;;;;;;15.55;100.00;101095.91;4879322;29;20461;-69
2023/09/28 05:25:14;;;;;;;1.33;0.70;;;;;;;15.60;99.80;101099.59;4881232;29;20433;-69
2023/09/28 05:27:42;;;;;;;1.07;0.97;;;;;;;15.60;99.46;101087.88;4879729;29;20474;-70
2023/09/28 05:30:13;;;;;;;1.20;0.90;;;;;;;16.32;100.00;101088.66;4879732;29;20455;-70
2023/09/28 05:32:42;;;;;;;1.53;0.83;;;;;;;16.32;99.97;101088.66;4879390;29;20793;-68
2023/09/28 05:35:11;;;;;;;1.23;0.70;;;;;;;16.81;100.00;101096.47;4880240;29;20510;-68
2023/09/28 05:37:40;;;;;;;1.00;0.90;;;;;;;16.89;96.86;101093.34;4879370;29;20740;-69
2023/09/28 05:40:10;;;;;;;2.87;2.13;;;;;;;17.04;98.37;101097.53;4886106;29;20814;-69
2023/09/28 05:42:41;;;;;;;1.10;0.70;;;;;;;16.92;94.26;101095.63;4877871;29;20514;-69
2023/09/28 05:45:10;;;;;;;1.83;1.73;;;;;;;16.84;94.80;101098.72;4879293;29;20413;-69
2023/09/28 05:47:39;;;;;;;2.17;0.93;;;;;;;16.89;95.72;101098.81;4882657;29;20451;-69
2023/09/28 05:50:09;;;;;;;2.20;1.70;;;;;;;17.02;95.22;101094.19;4880803;29;20406;-68
2023/09/28 05:52:37;;;;;;;0.90;0.67;;;;;;;17.30;96.85;101097.00;4876907;29;20471;-68
2023/09/28 05:55:07;;;;;;;1.00;0.60;;;;;;;17.10;91.97;101100.13;4879179;29;20402;-68
2023/09/28 05:57:36;;;;;;;3.90;1.03;;;;;;;17.22;95.64;101100.94;4878848;29;20962;-69
2023/09/28 06:00:09;;;;;;;1.23;1.13;;;;;;;17.36;93.46;101107.81;4876009;29;20506;-68
2023/09/28 06:02:38;;;;;;;1.10;0.60;;;;;;;17.37;89.40;101114.94;4877897;29;20449;-68
2023/09/28 06:05:08;;;;;;;1.40;1.23;;;;;;;17.54;89.59;101115.00;4877674;29;20805;-69
2023/09/28 06:07:37;;;;;;;1.30;0.80;;;;;;;17.75;93.73;101122.59;4878335;29;20526;-69
2023/09/28 06:10:08;;;;;;;1.80;1.63;;;;;;;17.85;91.49;101132.91;4880237;29;20810;-68
2023/09/28 06:12:37;;;;;;;1.20;1.10;;;;;;;18.01;89.46;101131.28;4878603;29;20978;-69
2023/09/28 06:15:09;;;;;;;0.90;0.60;;;;;;;17.93;87.82;101134.41;4878700;29;20519;-69
2023/09/28 06:17:38;;;;;;;1.17;0.93;;;;;;;18.18;90.38;101138.47;4882173;29;20453;-70
2023/09/28 06:20:09;;;;;;;1.03;0.93;;;;;;;18.10;88.04;101149.00;4879100;29;20439;-69
2023/09/28 06:22:37;;;;;;;1.90;1.47;;;;;;;17.96;88.21;101142.94;4888516;29;20425;-69
2023/09/28 06:25:08;;;;;;;1.00;0.63;;;;;;;17.90;85.71;101149.44;4884456;29;20417;-69
2023/09/28 06:27:38;;;;;;;0.87;0.50;;;;;;;18.04;86.44;101136.28;4876438;29;20454;-70
2023/09/28 06:30:09;;;;;;;1.50;1.40;;;;;;;18.16;86.99;101137.84;4876999;29;20427;-69
2023/09/28 06:32:38;;;;;;;1.23;0.70;;;;;;;18.34;86.90;101136.00;4884119;29;20436;-69
2023/09/28 06:35:09;;;;;;;2.20;2.07;;;;;;;18.31;84.54;101142.78;4880400;29;20921;-72
2023/09/28 06:37:38;;;;;;;1.40;1.17;;;;;;;18.50;84.29;101141.47;4887614;29;20417;-69
2023/09/28 06:40:08;;;;;;;1.33;1.00;;;;;;;18.45;82.58;101133.16;4883344;29;20951;-69
2023/09/28 06:42:36;;;;;;;3.33;3.13;;;;;;;18.48;82.67;101137.31;4882052;29;20856;-68
2023/09/28 06:45:10;;;;;;;1.30;0.90;;;;;;;18.66;83.13;101129.72;4884593;29;20869;-69
2023/09/28 06:47:38;;;;;;;1.03;0.60;;;;;;;18.60;81.14;101138.94;4890847;29;20959;-69
2023/09/28 06:50:11;;;;;;;1.30;1.20;;;;;;;18.82;81.50;101138.19;4882811;29;20502;-69
2023/09/28 06:52:40;;;;;;;1.10;0.93;;;;;;;18.86;82.01;101139.34;4878317;29;20430;-70
2023/09/28 06:55:08;;;;;;;0.90;0.50;;;;;;;18.99;81.34;101139.81;4884463;29;20434;-69
2023/09/28 06:57:37;;;;;;;1.33;1.23;;;;;;;18.96;81.05;101147.72;4883434;29;20430;-70
2023/09/28 07:00:09;;;;;;;2.40;2.20;;;;;;;19.09;80.98;101145.44;4886029;29;20440;-69
2023/09/28 07:02:41;;;;;;;4.50;2.47;;;;;;;19.02;80.75;101143.97;4883766;29;20430;-69
2023/09/28 07:05:11;;;;;;;1.97;1.20;;;;;;;19.32;80.83;101152.63;4880456;29;20442;-69
2023/09/28 07:07:39;;;;;;;2.57;2.13;;;;;;;19.32;78.69;101149.88;4880541;29;20473;-69
2023/09/28 07:10:10;;;;;;;5.00;3.00;;;;;;;19.28;81.13;101139.66;4882006;29;20445;-68
2023/09/28 07:12:40;;;;;;;2.70;2.13;;;;;;;19.28;79.64;101147.91;4888796;29;20882;-69
2023/09/28 07:15:09;;;;;;;2.10;2.00;;;;;;;19.32;78.65;101152.63;4883392;29;20462;-70
2023/09/28 07:17:39;;;;;;;1.57;0.83;;;;;;;19.42;78.28;101149.19;4884040;29;20507;-69
2023/09/28 07:20:09;;;;;;;2.47;2.27;;;;;;;19.43;77.72;101151.69;4883520;29;20467;-70
2023/09/28 07:22:38;;;;;;;1.20;0.90;;;;;;;19.42;79.58;101155.50;4881792;29;20459;-69
2023/09/28 07:25:09;;;;;;;2.37;1.70;;;;;;;19.52;78.42;101155.66;4883490;29;20448;-69
2023/09/28 07:27:38;;;;;;;1.37;1.27;;;;;;;19.62;78.12;101159.63;4881854;29;20436;-68
2023/09/28 07:30:08;;;;;;;1.50;1.20;;;;;;;19.78;77.85;101164.22;4884585;29;20977;-70
2023/09/28 07:32:37;;;;;;;1.70;0.90;;;;;;;19.86;77.17;101166.50;4881509;29;20461;-68
2023/09/28 07:35:09;;;;;;;1.10;1.00;;;;;;;19.93;76.32;101168.00;4884245;29;20432;-70
2023/09/28 07:37:38;;;;;;;2.43;2.23;;;;;;;19.89;76.24;101174.25;4877940;29;20452;-69
2023/09/28 07:40:10;;;;;;;3.83;1.53;;;;;;;19.94;76.49;101171.56;4883542;29;20878;-70
2023/09/28 07:42:39;;;;;;;1.17;0.90;;;;;;;20.18;76.74;101177.59;4880853;29;20450;-68
2023/09/28 07:45:09;;;;;;;1.03;0.93;;;;;;;20.52;77.25;101175.50;4881354;29;20488;-67
2023/09/28 07:47:38;;;;;;;2.50;2.30;;;;;;;20.65;74.17;101186.88;4884656;29;20499;-69
2023/09/28 07:50:14;;;;;;;1.73;1.43;;;;;;;20.68;75.01;101175.34;4878003;29;20458;-69
2023/09/28 07:52:44;;;;;;;1.17;0.93;;;;;;;20.76;73.75;101179.56;4877104;29;20523;-69
2023/09/28 07:55:14;;;;;;;1.13;1.00;;;;;;;20.82;73.17;101193.06;4879585;29;20423;-70
2023/09/28 07:57:43;;;;;;;2.10;1.90;;;;;;;20.89;73.06;101175.50;4875988;29;20485;-68
2023/09/28 08:00:17;;;;;;;2.77;2.53;;;;;;;20.99;72.56;101183.84;4885476;29;20508;-69
2023/09/28 08:02:46;;;;;;;1.10;0.73;;;;;;;21.04;72.51;101187.47;4880804;29;20434;-70
2023/09/28 08:05:16;;;;;;;3.30;2.10;;;;;;;21.11;72.21;101190.81;4882983;29;20951;-69
2023/09/28 08:07:45;;;;;;;2.90;1.83;;;;;;;21.18;72.15;101194.19;4880887;29;20486;-70
2023/09/28 08:10:33;;;;;;;1.37;1.10;;;;;;;21.23;72.51;101201.66;4885152;29;20524;-70
2023/09/28 08:13:02;;;;;;;1.43;1.30;;;;;;;21.31;72.41;101190.13;4884101;29;20413;-68
2023/09/28 08:15:32;;;;;;;1.40;1.10;;;;;;;21.53;72.08;101199.09;4886870;29;20418;-70
2023/09/28 08:18:05;;;;;;;1.40;1.17;;;;;;;21.76;70.68;101197.81;4880874;29;20435;-70
2023/09/28 08:20:35;;;;;;;1.80;1.10;;;;;;;21.87;69.38;101191.25;4876398;29;20462;-70
2023/09/28 08:23:05;;;;;;;1.27;1.10;;;;;;;21.84;70.35;101200.03;4882433;29;20461;-70
2023/09/28 08:25:35;;;;;;;1.20;0.90;;;;;;;21.75;70.89;101195.31;4879525;29;20801;-70
2023/09/28 08:28:04;;;;;;;1.70;1.47;;;;;;;22.01;70.15;101194.34;4881860;29;20471;-70
2023/09/28 08:30:33;;;;;;;1.23;1.10;;;;;;;22.09;69.03;101194.66;4886191;29;20414;-70
2023/09/28 08:33:02;;;;;;;1.10;0.77;;;;;;;22.16;69.04;101185.31;4882931;29;21197;-71
2023/09/28 08:35:31;;;;;;;2.10;1.70;;;;;;;22.37;68.51;101189.75;4883894;29;20930;-69
2023/09/28 08:38:01;;;;;;;1.30;1.17;;;;;;;22.48;68.17;101185.91;4883907;29;20799;-68
2023/09/28 08:40:30;;;;;;;2.67;2.43;;;;;;;22.48;68.21;101188.66;4875870;29;20443;-69
2023/09/28 08:43:05;;;;;;;1.47;1.10;;;;;;;22.61;68.26;101187.31;4879578;29;20501;-68
2023/09/28 08:45:36;;;;;;;3.10;1.23;;;;;;;22.81;67.23;101187.31;4873232;29;20448;-68
2023/09/28 08:48:09;;;;;;;1.33;1.13;;;;;;;22.93;66.92;101194.25;4878423;29;20459;-69
2023/09/28 08:50:41;;;;;;;1.93;1.20;;;;;;;22.95;66.92;101197.53;4886537;29;20970;-70
2023/09/28 08:53:11;;;;;;;3.00;2.80;;;;;;;22.98;66.43;101198.09;4885188;29;20439;-69
2023/09/28 08:55:40;;;;;;;1.30;1.20;;;;;;;22.93;67.52;101197.00;4876789;29;21044;-69
2023/09/28 08:58:11;;;;;;;3.40;1.50;;;;;;;23.00;67.09;101195.88;4891681;29;20478;-71
2023/09/28 09:00:41;;;;;;;1.63;1.40;;;;;;;23.03;66.69;101207.22;4879360;29;20507;-69
2023/09/28 09:03:11;;;;;;;2.00;1.70;;;;;;;23.10;66.76;101201.38;4875925;29;21064;-69
2023/09/28 09:05:41;;;;;;;1.73;1.37;;;;;;;23.30;65.97;101198.59;4882314;29;20504;-70
2023/09/28 09:08:12;;;;;;;3.40;2.37;;;;;;;23.10;66.70;101212.41;4879297;29;20442;-70
2023/09/28 09:10:42;;;;;;;1.70;1.33;;;;;;;23.00;67.84;101216.03;4879792;29;20459;-69
2023/09/28 09:13:17;;;;;;;1.60;1.00;;;;;;;23.05;67.06;101217.94;4877982;29;20427;-67
2023/09/28 09:15:45;;;;;;;1.67;1.47;;;;;;;23.27;66.86;101212.97;4878009;29;20435;-69
2023/09/28 09:18:26;;;;;;;2.07;1.57;;;;;;;23.51;65.67;101213.22;4880704;29;20435;-69
2023/09/28 09:21:00;;;;;;;1.20;1.03;;;;;;;23.57;65.82;101212.94;4880780;29;20988;-70
2023/09/28 09:23:31;;;;;;;1.60;1.10;;;;;;;23.72;64.98;101210.09;4879210;29;20426;-70
2023/09/28 09:26:03;;;;;;;1.53;1.43;;;;;;;23.92;64.43;101208.34;4881414;29;20450;-69
2023/09/28 09:28:34;;;;;;;1.40;1.10;;;;;;;23.90;64.36;101205.91;4879144;29;20440;-68
2023/09/28 09:31:04;;;;;;;1.57;1.23;;;;;;;24.16;64.23;101198.28;4876452;29;20461;-70
2023/09/28 09:33:35;;;;;;;1.67;1.40;;;;;;;24.29;63.33;101203.22;4879396;29;20432;-68
2023/09/28 09:36:05;;;;;;;2.03;1.00;;;;;;;24.31;62.46;101206.53;4877599;29;20440;-68
2023/09/28 09:38:35;;;;;;;1.50;1.10;;;;;;;24.29;63.60;101208.75;4879028;29;20451;-69
2023/09/28 09:41:05;;;;;;;2.43;2.30;;;;;;;24.47;63.36;101215.56;4874442;29;20460;-69
2023/09/28 09:43:36;;;;;;;1.60;0.83;;;;;;;24.47;62.50;101213.63;4879930;29;20443;-69
2023/09/28 09:46:05;;;;;;;1.10;0.70;;;;;;;24.51;62.66;101208.34;4880113;29;20435;-70
2023/09/28 09:48:40;;;;;;;1.20;1.07;;;;;;;24.72;62.35;101200.72;4882377;29;20828;-69
2023/09/28 09:51:13;;;;;;;1.20;0.77;;;;;;;24.74;62.07;101206.78;4880529;29;21122;-71
2023/09/28 09:53:44;;;;;;;1.30;1.20;;;;;;;24.94;61.00;101203.88;4882346;29;20483;-70
2023/09/28 09:56:14;;;;;;;1.10;0.70;;;;;;;24.72;61.15;101206.25;4881442;29;20435;-69
2023/09/28 09:58:47;;;;;;;1.20;0.80;;;;;;;24.78;61.14;101205.94;4880040;29;20953;-69
2023/09/28 10:01:17;;;;;;;2.30;2.10;;;;;;;24.99;59.94;101206.59;4879038;29;20470;-69
2023/09/28 10:04:12;;;;;;;1.27;0.80;;;;;;;25.01;59.52;101207.97;4879529;29;20435;-67
2023/09/28 10:06:44;;;;;;;1.73;1.63;;;;;;;25.01;59.31;101207.97;4872476;29;20969;-68
2023/09/28 10:09:15;;;;;;;1.83;1.47;;;;;;;24.93;59.86;101207.78;4879211;29;20471;-69
2023/09/28 10:11:45;;;;;;;1.13;1.03;;;;;;;25.05;59.91;101203.50;4878573;29;20531;-70
2023/09/28 10:14:15;;;;;;;1.87;1.10;;;;;;;25.27;58.90;101204.97;4874197;29;20518;-69
2023/09/28 10:16:48;;;;;;;1.83;1.13;;;;;;;25.49;58.40;101206.09;4878175;29;21065;-70
2023/09/28 10:19:19;;;;;;;2.10;1.47;;;;;;;25.56;56.65;101210.50;4877490;29;20546;-69
2023/09/28 10:21:51;;;;;;;1.40;0.77;;;;;;;25.45;57.35;101209.75;4878615;29;20554;-69
2023/09/28 10:24:29;;;;;;;1.67;0.73;;;;;;;25.54;56.97;101205.22;4876996;29;20439;-70
2023/09/28 10:26:58;;;;;;;1.10;0.60;;;;;;;25.21;56.97;101215.25;4878816;29;20463;-67
2023/09/28 10:29:30;;;;;;;1.60;0.80;;;;;;;25.00;58.28;101211.00;4878910;29;20563;-69
2023/09/28 10:32:01;;;;;;;1.23;0.90;;;;;;;24.90;58.32;101211.09;4875460;29;20459;-69
2023/09/28 10:34:31;;;;;;;1.10;0.70;;;;;;;24.96;57.36;101210.78;4878597;29;20832;-69
2023/09/28 10:37:20;;;;;;;1.20;1.10;;;;;;;25.06;56.29;101216.22;4876724;29;20428;-67
2023/09/28 10:39:52;;;;;;;1.00;0.60;;;;;;;25.15;56.96;101216.41;4870784;29;20507;-70
2023/09/28 10:42:23;;;;;;;1.73;1.33;;;;;;;25.37;57.03;101222.28;4881000;29;20541;-70
2023/09/28 10:44:53;;;;;;;1.37;1.10;;;;;;;25.51;56.25;101217.69;4882590;29;20535;-70
2023/09/28 10:47:22;;;;;;;1.33;1.03;;;;;;;25.71;54.24;101215.84;4884252;29;20459;-70
2023/09/28 10:49:59;;;;;;;1.13;0.77;;;;;;;25.75;54.46;101220.53;4881286;29;20526;-70
2023/09/28 10:52:29;;;;;;;1.37;1.03;;;;;;;25.76;53.95;101215.78;4874419;29;20451;-70
2023/09/28 10:54:59;;;;;;;1.50;1.10;;;;;;;25.63;54.06;101220.09;4879221;29;20474;-68
2023/09/28 10:57:32;;;;;;;1.40;0.77;;;;;;;25.52;54.90;101216.56;4878418;29;20436;-69
2023/09/28 11:00:02;;;;;;;1.33;0.90;;;;;;;25.58;53.33;101220.16;4876616;29;20443;-68
2023/09/28 11:02:37;;;;;;;2.63;2.03;;;;;;;25.71;53.54;101226.91;4879439;29;21023;-69
2023/09/28 11:05:08;;;;;;;1.17;0.83;;;;;;;25.70;53.74;101228.91;4881763;29;20413;-68
2023/09/28 11:07:40;;;;;;;1.00;0.50;;;;;;;25.91;53.49;101223.91;4874613;29;20436;-69
2023/09/28 11:10:11;;;;;;;1.60;1.00;;;;;;;26.09;51.89;101220.38;4878027;29;20492;-70
2023/09/28 11:12:41;;;;;;;1.20;0.60;;;;;;;26.29;51.63;101217.31;4874867;29;20475;-69
2023/09/28 11:15:14;;;;;;;1.53;1.30;;;;;;;26.33;51.51;101207.28;4886473;29;20473;-69
2023/09/28 11:17:43;;;;;;;1.97;1.70;;;;;;;26.54;50.30;101204.19;4874434;29;20430;-68
2023/09/28 11:20:12;;;;;;;1.50;0.80;;;;;;;26.62;49.59;101200.75;4883010;29;20442;-69
2023/09/28 11:22:41;;;;;;;1.37;0.70;;;;;;;26.78;49.05;101213.22;4877488;29;20459;-70
2023/09/28 11:25:12;;;;;;;1.10;0.67;;;;;;;26.92;48.38;101211.38;4880969;29;20507;-70
2023/09/28 11:27:52;;;;;;;1.20;0.90;;;;;;;27.14;46.59;101219.88;4877422;29;20871;-70
2023/09/28 11:30:21;;;;;;;1.17;0.90;;;;;;;27.08;46.07;101226.66;4883129;29;20471;-69
2023/09/28 11:32:51;;;;;;;1.63;0.80;;;;;;;27.25;45.54;101224.09;4877220;29;20479;-70
2023/09/28 11:35:26;;;;;;;1.60;0.60;;;;;;;27.21;45.58;101225.84;4883709;29;20444;-69